Time;durP1;ratioP1;P1;durP2;ratioP2;P2;SDS_P1;SDS_P2;PMS_P1;PMS_P2;Temp;Humidity;BMP_temperature;BMP_pressure;BME280_temperature;BME280_humidity;BME280_pressure;Samples;Min_cycle;Max_cycle;Signal;HPM_P1;HPM_P2
2023/12/31 10:54:15;;;;;;;3.13;2.50;;;;;;;10.98;76.40;97733.41;6233673;22;42056;-91
2023/12/31 10:56:44;;;;;;;3.23;2.10;;;;;;;11.45;76.24;97763.94;6235278;22;39451;-91
2023/12/31 10:59:13;;;;;;;2.90;2.30;;;;;;;11.41;75.18;97734.19;6235248;22;40870;-93
2023/12/31 11:01:47;;;;;;;3.37;2.10;;;;;;;11.70;74.22;97758.25;6234920;22;42205;-90
2023/12/31 11:04:18;;;;;;;2.10;1.90;;;;;;;11.84;73.15;97760.63;6235024;22;41618;-90
2023/12/31 11:07:03;;;;;;;3.00;2.10;;;;;;;11.93;72.06;97761.63;6235566;22;41169;-91
2023/12/31 11:09:38;;;;;;;2.40;1.90;;;;;;;11.81;72.61;97718.44;6235113;22;42121;-93
2023/12/31 11:12:07;;;;;;;2.10;1.70;;;;;;;11.78;73.39;97702.75;6234850;22;42627;-91
2023/12/31 11:14:40;;;;;;;2.43;2.00;;;;;;;11.75;70.79;97718.94;6234640;22;41113;-91
2023/12/31 11:17:39;;;;;;;2.20;2.00;;;;;;;11.87;72.19;97723.19;6235280;22;38893;-92
2023/12/31 11:20:28;;;;;;;2.10;1.90;;;;;;;11.88;71.51;97711.59;6235629;22;41176;-91
2023/12/31 11:23:23;;;;;;;1.67;1.40;;;;;;;11.81;70.51;97686.59;6235106;22;42638;-92
2023/12/31 11:25:53;;;;;;;2.47;1.90;;;;;;;11.56;68.67;97643.72;6234648;22;41330;-92
2023/12/31 11:28:23;;;;;;;2.00;1.80;;;;;;;11.73;68.82;97657.22;6234796;22;40914;-90
2023/12/31 11:30:52;;;;;;;2.30;1.67;;;;;;;12.02;67.79;97696.31;6235522;22;41538;-89
2023/12/31 11:33:41;;;;;;;2.13;1.93;;;;;;;12.05;65.66;97699.56;6228171;22;41705;-91
2023/12/31 11:36:13;;;;;;;2.77;1.90;;;;;;;12.04;65.71;97684.59;6228050;22;41326;-90
2023/12/31 11:39:06;;;;;;;2.60;2.17;;;;;;;11.99;64.93;97657.63;6228107;22;41016;-90
2023/12/31 11:41:41;;;;;;;2.63;1.80;;;;;;;11.99;63.69;97651.50;6227645;22;42320;-91
2023/12/31 11:44:09;;;;;;;2.07;1.67;;;;;;;12.29;63.18;97685.94;6228454;22;42009;-91
2023/12/31 11:46:45;;;;;;;2.13;1.57;;;;;;;12.38;63.18;97685.13;6228238;22;41332;-90
2023/12/31 11:49:13;;;;;;;2.37;1.73;;;;;;;12.41;62.03;97674.25;6228554;22;39489;-92
2023/12/31 11:51:58;;;;;;;2.00;1.80;;;;;;;12.47;60.38;97671.06;6222990;22;40851;-91
2023/12/31 11:54:43;;;;;;;2.50;1.93;;;;;;;12.63;61.67;97661.69;6223285;22;43448;-91
2023/12/31 11:57:13;;;;;;;2.17;1.90;;;;;;;12.71;60.43;97675.16;6222916;22;43302;-89
2023/12/31 11:59:44;;;;;;;2.97;1.80;;;;;;;12.70;60.62;97673.47;6222966;22;40938;-89
2023/12/31 12:02:14;;;;;;;1.73;1.60;;;;;;;12.78;59.75;97671.78;6223481;22;42672;-89
2023/12/31 12:04:46;;;;;;;2.30;2.03;;;;;;;12.54;59.91;97621.72;6222676;22;44334;-89
2023/12/31 12:07:17;;;;;;;2.47;1.43;;;;;;;12.82;60.27;97661.72;6223137;22;42684;-90
2023/12/31 12:09:48;;;;;;;1.57;1.47;;;;;;;12.74;60.19;97640.31;6223067;22;39354;-89
2023/12/31 12:12:32;;;;;;;1.63;1.30;;;;;;;12.80;59.82;97653.06;6222980;22;42206;-92
2023/12/31 12:15:04;;;;;;;1.63;1.30;;;;;;;12.66;59.71;97625.09;6222969;22;44170;-91
2023/12/31 12:17:32;;;;;;;2.07;1.63;;;;;;;12.74;58.33;97638.50;6222935;22;41835;-89
2023/12/31 12:19:59;;;;;;;2.03;1.33;;;;;;;12.79;58.65;97651.38;6222505;22;40249;-91
2023/12/31 12:22:27;;;;;;;1.60;1.10;;;;;;;12.68;59.46;97627.59;6222642;22;42063;-91
2023/12/31 12:24:59;;;;;;;2.43;1.60;;;;;;;12.68;60.13;97659.47;6222686;22;41876;-91
2023/12/31 12:27:27;;;;;;;1.50;1.33;;;;;;;12.57;60.63;97653.31;6222617;22;42668;-91
2023/12/31 12:29:58;;;;;;;2.40;1.93;;;;;;;12.53;62.17;97697.06;6222689;22;38921;-92
2023/12/31 12:32:36;;;;;;;3.77;2.40;;;;;;;12.41;61.09;97739.78;6222280;22;42248;-89
2023/12/31 12:35:16;;;;;;;3.40;2.40;;;;;;;12.11;61.67;97744.16;6222709;22;44073;-89
2023/12/31 12:37:49;;;;;;;2.80;2.50;;;;;;;11.98;62.99;97753.28;6222789;22;42857;-90
2023/12/31 12:40:25;;;;;;;5.33;2.83;;;;;;;11.82;63.74;97765.19;6222376;22;40656;-92
2023/12/31 12:45:45;;;;;;;3.40;2.30;;;;;;;11.35;69.66;97736.50;6303510;22;44373;-90
2023/12/31 12:48:41;;;;;;;3.13;2.20;;;;;;;10.87;72.15;97685.78;6258205;22;41874;-91
2023/12/31 12:51:42;;;;;;;2.90;2.10;;;;;;;10.94;74.56;97716.09;6258737;22;40223;-92
2023/12/31 13:06:21;;;;;;;2.73;2.20;;;;;;;10.69;79.08;97728.69;6311222;22;40433;-91
